createdAt,value
2023-02-07T00:03:28.732Z,102389.66
2023-02-07T00:08:30.140Z,102402.91
2023-02-07T00:13:31.580Z,102392.72
2023-02-07T00:18:34.221Z,102402.66
2023-02-07T00:23:36.689Z,102399.06
2023-02-07T00:28:38.513Z,102388.75
2023-02-07T00:33:41.703Z,102396.19
2023-02-07T00:38:44.504Z,102386.16
2023-02-07T00:43:47.475Z,102375.31
2023-02-07T00:48:50.348Z,102364.09
2023-02-07T00:53:56.190Z,102370.63
2023-02-07T00:58:58.189Z,102352.88
2023-02-07T01:03:59.636Z,102347.63
2023-02-07T01:09:01.972Z,102346.75
2023-02-07T01:14:03.468Z,102359.13
2023-02-07T01:19:09.402Z,102382.38
2023-02-07T01:24:10.840Z,102389.06
2023-02-07T01:29:15.350Z,102364.75
2023-02-07T01:34:16.750Z,102373.66
2023-02-07T01:39:18.276Z,102372.59
2023-02-07T01:44:39.616Z,102389.97
2023-02-07T01:49:41.878Z,102377.22
2023-02-07T01:54:46.754Z,102386.03
2023-02-07T01:59:50.483Z,102392.44
2023-02-07T02:04:54.348Z,102391.19
2023-02-07T02:09:55.786Z,102396.94
2023-02-07T02:15:18.456Z,102393.44
2023-02-07T02:20:26.099Z,102399.84
2023-02-07T02:25:48.111Z,102401.94
2023-02-07T02:31:01.890Z,102385.88
2023-02-07T02:36:33.991Z,102371.63
2023-02-07T02:41:47.180Z,102366.47
2023-02-07T02:46:51.248Z,102362.66
2023-02-07T02:51:52.943Z,102369.25
2023-02-07T02:57:15.052Z,102382.50
2023-02-07T03:02:35.378Z,102377.34
2023-02-07T03:07:54.650Z,102382.19
2023-02-07T03:13:23.112Z,102388.47
2023-02-07T03:18:31.292Z,102399.78
2023-02-07T03:23:34.168Z,102411.53
2023-02-07T03:28:37.039Z,102424.91
2023-02-07T03:33:39.354Z,102422.97
2023-02-07T03:38:40.784Z,102400.94
2023-02-07T03:43:43.782Z,102402.53
2023-02-07T03:48:45.201Z,102404.69
2023-02-07T03:53:46.596Z,102397.88
2023-02-07T03:58:48.047Z,102390.38
2023-02-07T04:03:49.552Z,102389.66
2023-02-07T04:08:51.338Z,102412.97
2023-02-07T04:13:52.775Z,102403.63
2023-02-07T04:18:54.239Z,102405.97
2023-02-07T04:23:55.637Z,102404.97
2023-02-07T04:28:57.043Z,102391.41
2023-02-07T04:33:58.465Z,102389.47
2023-02-07T04:38:59.876Z,102385.31
2023-02-07T04:44:01.257Z,102395.13
2023-02-07T04:49:04.162Z,102390.69
2023-02-07T04:54:05.638Z,102389.66
2023-02-07T04:59:07.174Z,102397.53
2023-02-07T05:04:08.714Z,102402.59
2023-02-07T05:09:10.206Z,102404.13
2023-02-07T05:14:11.593Z,102404.03
2023-02-07T05:19:12.992Z,102418.09
2023-02-07T05:24:14.527Z,102418.81
2023-02-07T05:29:16.407Z,102419.66
2023-02-07T05:34:17.824Z,102430.28
2023-02-07T05:39:19.227Z,102424.50
2023-02-07T05:44:20.644Z,102428.72
2023-02-07T05:49:22.129Z,102430.28
2023-02-07T05:54:23.707Z,102424.22
2023-02-07T05:59:25.150Z,102437.44
2023-02-07T06:04:26.680Z,102446.50
2023-02-07T06:09:28.149Z,102440.34
2023-02-07T06:14:29.567Z,102445.84
2023-02-07T06:19:31.005Z,102447.38
2023-02-07T06:24:32.428Z,102441.38
2023-02-07T06:29:33.927Z,102438.78
2023-02-07T06:34:35.329Z,102441.38
2023-02-07T06:39:36.871Z,102436.16
2023-02-07T06:44:38.371Z,102435.31
2023-02-07T06:49:39.845Z,102444.44
2023-02-07T06:54:41.905Z,102451.00
2023-02-07T06:59:43.673Z,102456.00
2023-02-07T07:04:45.450Z,102456.84
2023-02-07T07:09:47.014Z,102468.66
2023-02-07T07:14:48.721Z,102475.41
2023-02-07T07:19:50.164Z,102489.09
2023-02-07T07:24:51.843Z,102492.47
2023-02-07T07:29:53.360Z,102495.72
2023-02-07T07:34:55.474Z,102481.94
2023-02-07T07:39:57.487Z,102492.09
2023-02-07T07:44:59.023Z,102489.41
2023-02-07T07:50:00.599Z,102498.09
2023-02-07T07:55:02.359Z,102487.81
2023-02-07T08:00:05.135Z,102480.69
2023-02-07T08:05:07.075Z,102494.22
2023-02-07T08:10:09.474Z,102494.47
2023-02-07T08:15:12.740Z,102484.31
2023-02-07T08:20:14.246Z,102487.50
2023-02-07T08:25:15.799Z,102494.13
2023-02-07T08:30:19.082Z,102500.00
2023-02-07T08:35:21.137Z,102510.91
2023-02-07T08:40:22.946Z,102513.69
2023-02-07T08:45:24.524Z,102520.03
2023-02-07T08:50:26.274Z,102536.19
2023-02-07T08:55:27.906Z,102560.34
2023-02-07T09:00:29.444Z,102550.91
2023-02-07T09:05:33.772Z,102547.50
2023-02-07T09:10:35.419Z,102547.09
2023-02-07T09:15:37.206Z,102546.34
2023-02-07T09:20:40.275Z,102536.03
2023-02-07T09:25:42.892Z,102544.97
2023-02-07T09:30:46.066Z,102550.69
2023-02-07T09:35:48.251Z,102556.41
2023-02-07T09:40:52.715Z,102553.81
2023-02-07T09:46:19.968Z,102547.47
2023-02-07T09:51:24.405Z,102559.50
2023-02-07T09:56:30.470Z,102562.25
2023-02-07T10:01:46.759Z,102563.94
2023-02-07T10:06:59.705Z,102561.47
2023-02-07T10:12:25.204Z,102562.06
2023-02-07T10:17:51.051Z,102551.06
2023-02-07T10:23:02.158Z,102548.34
2023-02-07T10:28:19.061Z,102552.88
2023-02-07T10:33:27.348Z,102549.56
2023-02-07T10:39:07.738Z,102555.16
2023-02-07T10:44:17.453Z,102574.06
2023-02-07T10:49:37.867Z,102549.41
2023-02-07T10:54:55.377Z,102550.16
2023-02-07T11:00:21.608Z,102552.41
2023-02-07T11:05:23.210Z,102549.28
2023-02-07T11:10:33.292Z,102543.50
2023-02-07T11:15:49.475Z,102537.09
2023-02-07T11:20:53.322Z,102527.31
2023-02-07T11:25:56.512Z,102525.47
2023-02-07T11:31:03.361Z,102521.94
2023-02-07T11:36:20.219Z,102526.13
2023-02-07T11:41:28.195Z,102509.75
2023-02-07T11:46:39.489Z,102505.00
2023-02-07T11:51:41.032Z,102513.75
2023-02-07T11:56:48.373Z,102505.59
2023-02-07T12:01:59.919Z,102512.97
2023-02-07T12:07:06.569Z,102510.53
2023-02-07T12:12:17.217Z,102502.59
2023-02-07T12:17:27.664Z,102513.25
2023-02-07T12:22:41.881Z,102522.72
2023-02-07T12:27:47.912Z,102500.38
2023-02-07T12:33:00.849Z,102501.59
2023-02-07T12:38:25.418Z,102490.72
2023-02-07T12:43:38.081Z,102492.09
2023-02-07T12:48:51.845Z,102482.75
2023-02-07T12:54:11.680Z,102476.69
2023-02-07T12:59:28.459Z,102454.53
2023-02-07T13:04:45.512Z,102455.72
2023-02-07T13:09:57.655Z,102456.69
2023-02-07T13:15:30.460Z,102450.00
2023-02-07T13:21:05.755Z,102453.25
2023-02-07T13:26:20.434Z,102451.47
2023-02-07T13:31:37.431Z,102457.06
2023-02-07T13:36:42.845Z,102444.19
2023-02-07T13:42:15.389Z,102455.09
2023-02-07T13:47:35.251Z,102461.09
2023-02-07T13:53:11.144Z,102463.56
2023-02-07T13:59:09.975Z,102473.59
2023-02-07T14:04:12.732Z,102457.41
2023-02-07T14:09:23.859Z,102459.06
2023-02-07T14:14:31.646Z,102458.16
2023-02-07T14:19:43.686Z,102458.03
2023-02-07T14:25:08.540Z,102464.50
2023-02-07T14:30:17.986Z,102468.66
2023-02-07T14:35:22.449Z,102463.69
2023-02-07T14:40:49.592Z,102449.03
2023-02-07T14:45:51.740Z,102436.59
2023-02-07T14:50:54.717Z,102431.50
2023-02-07T14:56:02.121Z,102446.25
2023-02-07T15:01:11.101Z,102449.00
2023-02-07T15:06:31.666Z,102452.31
2023-02-07T15:11:33.680Z,102452.31
2023-02-07T15:16:40.182Z,102448.91
2023-02-07T15:21:46.008Z,102455.56
2023-02-07T15:26:56.756Z,102459.84
2023-02-07T15:31:59.581Z,102477.41
2023-02-07T15:37:14.407Z,102473.94
2023-02-07T15:42:17.868Z,102477.88
2023-02-07T15:47:28.545Z,102474.31
2023-02-07T15:52:50.159Z,102470.78
2023-02-07T15:57:52.210Z,102473.09
2023-02-07T16:02:59.860Z,102475.34
2023-02-07T16:08:02.084Z,102482.66
2023-02-07T16:13:06.458Z,102489.16
2023-02-07T16:18:40.964Z,102498.06
2023-02-07T16:23:44.647Z,102493.34
2023-02-07T16:28:47.406Z,102504.66
2023-02-07T16:33:49.236Z,102506.69
2023-02-07T16:38:51.286Z,102503.69
2023-02-07T16:43:52.733Z,102513.41
2023-02-07T16:48:54.386Z,102508.75
2023-02-07T16:53:55.892Z,102526.00
2023-02-07T16:59:00.567Z,102523.16
2023-02-07T17:04:03.618Z,102522.13
2023-02-07T17:09:29.068Z,102519.22
2023-02-07T17:14:30.442Z,102530.69
2023-02-07T17:19:31.971Z,102530.34
2023-02-07T17:24:33.510Z,102527.56
2023-02-07T17:29:34.923Z,102518.81
2023-02-07T17:34:36.587Z,102528.66
2023-02-07T17:39:37.972Z,102526.53
2023-02-07T17:44:40.208Z,102521.22
2023-02-07T17:49:41.736Z,102526.84
2023-02-07T17:54:45.211Z,102531.59
2023-02-07T17:59:46.597Z,102537.28
2023-02-07T18:04:48.035Z,102534.69
2023-02-07T18:09:49.417Z,102527.50
2023-02-07T18:14:52.121Z,102536.47
2023-02-07T18:19:53.648Z,102548.97
2023-02-07T18:24:55.045Z,102550.28
2023-02-07T18:29:56.426Z,102554.28
2023-02-07T18:34:57.857Z,102561.53
2023-02-07T18:39:59.536Z,102562.81
2023-02-07T18:45:02.577Z,102560.66
2023-02-07T18:50:04.503Z,102562.06
2023-02-07T18:55:06.218Z,102560.88
2023-02-07T19:00:09.564Z,102555.56
2023-02-07T19:05:11.075Z,102548.59
2023-02-07T19:10:12.580Z,102556.66
2023-02-07T19:15:13.950Z,102548.94
2023-02-07T19:20:15.471Z,102555.41
2023-02-07T19:25:16.882Z,102545.78
2023-02-07T19:30:19.577Z,102547.22
2023-02-07T19:35:21.049Z,102536.00
2023-02-07T19:40:22.563Z,102544.16
2023-02-07T19:45:26.234Z,102555.28
2023-02-07T19:50:27.677Z,102551.44
2023-02-07T19:55:29.157Z,102555.44
2023-02-07T20:00:30.593Z,102557.03
2023-02-07T20:05:32.037Z,102580.50
2023-02-07T20:10:33.623Z,102568.41
2023-02-07T20:15:40.609Z,102578.91
2023-02-07T20:20:48.090Z,102587.22
2023-02-07T20:25:49.685Z,102576.63
2023-02-07T20:30:51.121Z,102576.00
2023-02-07T20:35:52.851Z,102567.13
2023-02-07T20:40:56.463Z,102577.09
2023-02-07T20:46:12.521Z,102583.84
2023-02-07T20:51:14.284Z,102589.81
2023-02-07T20:56:17.553Z,102584.53
2023-02-07T21:01:21.698Z,102580.16
2023-02-07T21:06:24.027Z,102587.53
2023-02-07T21:11:33.928Z,102575.72
2023-02-07T21:16:35.679Z,102574.00
2023-02-07T21:21:37.647Z,102568.47
2023-02-07T21:26:39.819Z,102560.53
2023-02-07T21:31:41.496Z,102557.88
2023-02-07T21:36:43.347Z,102553.66
2023-02-07T21:41:45.910Z,102560.03
2023-02-07T21:46:49.881Z,102562.28
2023-02-07T21:51:53.681Z,102554.63
2023-02-07T21:56:55.277Z,102550.34
2023-02-07T22:01:58.056Z,102560.28
2023-02-07T22:06:59.476Z,102558.72
2023-02-07T22:12:01.019Z,102550.97
2023-02-07T22:17:03.304Z,102558.31
2023-02-07T22:22:05.003Z,102553.19
2023-02-07T22:27:06.816Z,102548.88
2023-02-07T22:32:08.209Z,102549.59
2023-02-07T22:37:09.631Z,102543.03
2023-02-07T22:42:11.014Z,102546.31
2023-02-07T22:47:12.423Z,102538.00
2023-02-07T22:52:13.814Z,102535.44
2023-02-07T22:57:16.229Z,102538.09
2023-02-07T23:02:17.786Z,102538.09
2023-02-07T23:07:19.506Z,102540.34
2023-02-07T23:12:21.421Z,102521.03
2023-02-07T23:17:22.834Z,102529.72
2023-02-07T23:22:24.429Z,102531.00
2023-02-07T23:27:25.885Z,102524.97
2023-02-07T23:32:27.563Z,102524.75
2023-02-07T23:37:28.950Z,102532.03
2023-02-07T23:42:30.411Z,102531.66
2023-02-07T23:47:31.880Z,102532.44
2023-02-07T23:52:33.482Z,102521.41
2023-02-07T23:57:34.890Z,102518.06
